Time;durP1;ratioP1;P1;durP2;ratioP2;P2;SDS_P1;SDS_P2;PMS_P1;PMS_P2;Temp;Humidity;BMP_temperature;BMP_pressure;BME280_temperature;BME280_humidity;BME280_pressure;Samples;Min_cycle;Max_cycle;Signal;HPM_P1;HPM_P2
2021/12/14 00:02:20;;;;;;;;;;;3.10;99.90;;;;;;2602753;54;20022;31
2021/12/14 00:04:55;;;;;;;;;;;3.20;99.90;;;;;;2613987;54;19939;31
2021/12/14 00:07:29;;;;;;;;;;;3.20;99.90;;;;;;2610152;54;20010;31
2021/12/14 00:10:14;;;;;;;;;;;3.20;99.90;;;;;;2608812;54;19958;31
2021/12/14 00:13:00;;;;;;;;;;;3.20;99.90;;;;;;2611905;54;19986;31
2021/12/14 00:15:33;;;;;;;;;;;3.20;99.90;;;;;;2610792;54;19939;31
2021/12/14 00:18:08;;;;;;;;;;;3.20;99.90;;;;;;2606696;54;19934;31
2021/12/14 00:20:41;;;;;;;;;;;3.20;99.90;;;;;;2613519;54;20663;31
2021/12/14 00:26:07;;;;;;;;;;;3.20;99.90;;;;;;2612951;54;19942;31
2021/12/14 00:31:29;;;;;;;;;;;3.20;99.90;;;;;;2603476;54;21438;31
2021/12/14 00:34:04;;;;;;;;;;;3.20;99.90;;;;;;2631687;47;19935;31
2021/12/14 00:36:38;;;;;;;;;;;3.30;99.90;;;;;;2609281;54;19931;31
2021/12/14 00:39:12;;;;;;;;;;;3.30;99.90;;;;;;2611193;54;19937;31
2021/12/14 00:41:45;;;;;;;;;;;3.30;99.90;;;;;;2607423;54;20771;31
2021/12/14 00:44:21;;;;;;;;;;;3.30;99.90;;;;;;2617270;47;19981;31
2021/12/14 00:46:54;;;;;;;;;;;3.30;99.90;;;;;;2612004;39;20828;31
2021/12/14 00:49:28;;;;;;;;;;;3.30;99.90;;;;;;2614448;47;20010;31
2021/12/14 00:52:00;;;;;;;;;;;3.30;99.90;;;;;;2610448;54;19938;31
2021/12/14 00:54:35;;;;;;;;;;;3.30;99.90;;;;;;2605380;54;19950;31
2021/12/14 00:57:07;;;;;;;;;;;3.30;99.90;;;;;;2611328;54;19938;31
2021/12/14 00:59:44;;;;;;;;;;;3.30;99.90;;;;;;2605880;54;20748;31
2021/12/14 01:02:20;;;;;;;;;;;3.30;99.90;;;;;;2632405;46;19930;31
2021/12/14 01:04:59;;;;;;;;;;;3.30;99.90;;;;;;2613857;54;19934;31
2021/12/14 01:07:33;;;;;;;;;;;3.30;99.90;;;;;;2609927;54;20816;31
2021/12/14 01:10:05;;;;;;;;;;;3.30;99.90;;;;;;2612035;54;19942;31
2021/12/14 01:12:44;;;;;;;;;;;3.30;99.90;;;;;;2611242;54;19939;31
2021/12/14 01:18:28;;;;;;;;;;;3.30;99.90;;;;;;2610173;54;19938;31
2021/12/14 01:21:10;;;;;;;;;;;3.30;99.90;;;;;;2613154;54;19927;31
2021/12/14 01:23:43;;;;;;;;;;;3.30;99.90;;;;;;2608970;54;19935;31
2021/12/14 01:26:17;;;;;;;;;;;3.30;99.90;;;;;;2604087;54;19939;31
2021/12/14 01:28:52;;;;;;;;;;;3.30;99.90;;;;;;2615147;54;20805;31
2021/12/14 01:31:32;;;;;;;;;;;3.30;99.90;;;;;;2605131;54;19937;-81
2021/12/14 01:34:05;;;;;;;;;;;3.30;99.90;;;;;;2615633;54;19937;31
2021/12/14 01:36:47;;;;;;;;;;;3.30;99.90;;;;;;2608260;54;19939;31
2021/12/14 01:39:46;;;;;;;;;;;3.30;99.90;;;;;;2604176;54;19951;31
2021/12/14 01:42:20;;;;;;;;;;;3.30;99.90;;;;;;2617597;46;19938;31
2021/12/14 01:44:55;;;;;;;;;;;3.30;99.90;;;;;;2615510;54;19931;31
2021/12/14 01:47:37;;;;;;;;;;;3.30;99.90;;;;;;2616797;54;19939;31
2021/12/14 01:50:20;;;;;;;;;;;3.30;99.90;;;;;;2612367;54;19935;31
2021/12/14 01:53:14;;;;;;;;;;;3.30;99.90;;;;;;2615815;54;19957;31
2021/12/14 01:55:53;;;;;;;;;;;3.30;99.90;;;;;;2610518;54;19926;31
2021/12/14 01:58:34;;;;;;;;;;;3.30;99.90;;;;;;2615634;46;19935;31
2021/12/14 02:01:11;;;;;;;;;;;3.30;99.90;;;;;;2612429;54;20010;31
2021/12/14 02:03:51;;;;;;;;;;;3.30;99.90;;;;;;2610497;54;19931;31
2021/12/14 02:06:30;;;;;;;;;;;3.30;99.90;;;;;;2611244;54;19931;31
2021/12/14 02:09:06;;;;;;;;;;;3.20;99.90;;;;;;2626400;46;19930;31
2021/12/14 02:11:51;;;;;;;;;;;3.20;99.90;;;;;;2615322;54;19938;31
2021/12/14 02:14:32;;;;;;;;;;;3.20;99.90;;;;;;2608192;54;20796;31
2021/12/14 02:17:08;;;;;;;;;;;3.20;99.90;;;;;;2608433;54;20822;31
2021/12/14 02:19:44;;;;;;;;;;;3.20;99.90;;;;;;2706063;39;20226;31
2021/12/14 02:22:33;;;;;;;;;;;3.20;99.90;;;;;;2611727;54;19935;31
2021/12/14 02:25:16;;;;;;;;;;;3.20;99.90;;;;;;2613551;54;19994;31
2021/12/14 02:27:49;;;;;;;;;;;3.20;99.90;;;;;;2611174;46;19941;31
2021/12/14 02:30:36;;;;;;;;;;;3.20;99.90;;;;;;2608183;54;20753;31
2021/12/14 02:33:12;;;;;;;;;;;3.20;99.90;;;;;;2618230;46;20381;31
2021/12/14 02:35:44;;;;;;;;;;;3.20;99.90;;;;;;2613540;54;19927;31
2021/12/14 02:38:21;;;;;;;;;;;3.30;99.90;;;;;;2615284;54;20847;31
2021/12/14 02:40:57;;;;;;;;;;;3.20;99.90;;;;;;2629234;46;19939;31
2021/12/14 02:43:56;;;;;;;;;;;3.20;99.90;;;;;;2608934;54;19938;31
2021/12/14 02:46:38;;;;;;;;;;;3.30;99.90;;;;;;2605603;54;19978;31
2021/12/14 02:49:14;;;;;;;;;;;3.30;99.90;;;;;;2620086;54;19926;31
2021/12/14 02:51:57;;;;;;;;;;;3.30;99.90;;;;;;2608707;54;20235;31
2021/12/14 02:54:33;;;;;;;;;;;3.30;99.90;;;;;;2607166;54;19974;31
2021/12/14 02:57:19;;;;;;;;;;;3.30;99.90;;;;;;2610009;54;19938;31
2021/12/14 02:59:53;;;;;;;;;;;3.30;99.90;;;;;;2611111;54;19937;31
2021/12/14 03:02:28;;;;;;;;;;;3.30;99.90;;;;;;2611202;54;20880;-76
2021/12/14 03:05:05;;;;;;;;;;;3.30;99.90;;;;;;2609601;54;20804;31
2021/12/14 03:07:40;;;;;;;;;;;3.30;99.90;;;;;;2604455;46;20013;31
2021/12/14 03:10:34;;;;;;;;;;;3.20;99.90;;;;;;2607567;46;20333;31
2021/12/14 03:13:09;;;;;;;;;;;3.20;99.90;;;;;;2625251;46;19949;31
2021/12/14 03:15:47;;;;;;;;;;;3.30;99.90;;;;;;2614490;54;19969;31
2021/12/14 03:18:23;;;;;;;;;;;3.30;99.90;;;;;;2608507;54;19938;31
2021/12/14 03:21:00;;;;;;;;;;;3.30;99.90;;;;;;2628457;46;19931;31
2021/12/14 03:23:32;;;;;;;;;;;3.30;99.90;;;;;;2613422;54;19942;31
2021/12/14 03:26:10;;;;;;;;;;;3.30;99.90;;;;;;2612761;54;19958;31
2021/12/14 03:28:45;;;;;;;;;;;3.30;99.90;;;;;;2616543;46;19926;31
2021/12/14 03:31:22;;;;;;;;;;;3.30;99.90;;;;;;2615230;54;19934;-73
2021/12/14 03:33:57;;;;;;;;;;;3.30;99.90;;;;;;2612126;54;20664;31
2021/12/14 03:36:39;;;;;;;;;;;3.30;99.90;;;;;;2611141;54;19946;31
2021/12/14 03:39:16;;;;;;;;;;;3.30;99.90;;;;;;2620956;46;20834;31
2021/12/14 03:41:51;;;;;;;;;;;3.30;99.90;;;;;;2613772;54;19981;31
2021/12/14 03:44:29;;;;;;;;;;;3.30;99.90;;;;;;2612987;54;19965;31
2021/12/14 03:47:04;;;;;;;;;;;3.20;99.90;;;;;;2610403;54;19985;31
2021/12/14 03:49:37;;;;;;;;;;;3.30;99.90;;;;;;2614475;54;19979;-83
2021/12/14 03:52:12;;;;;;;;;;;3.30;99.90;;;;;;2619759;54;19926;31
2021/12/14 03:57:37;;;;;;;;;;;3.20;99.90;;;;;;2613165;54;19981;31
2021/12/14 04:00:18;;;;;;;;;;;3.20;99.90;;;;;;2621882;54;19993;31
2021/12/14 04:02:56;;;;;;;;;;;3.20;99.90;;;;;;2615500;54;20084;31
2021/12/14 04:05:41;;;;;;;;;;;3.20;99.90;;;;;;2628681;46;19938;31
2021/12/14 04:08:14;;;;;;;;;;;3.20;99.90;;;;;;2612804;54;21556;-79
2021/12/14 04:10:48;;;;;;;;;;;3.20;99.90;;;;;;2615105;54;19943;31
2021/12/14 04:13:21;;;;;;;;;;;3.20;99.90;;;;;;2645757;39;20239;31
2021/12/14 04:15:57;;;;;;;;;;;3.20;99.90;;;;;;2621968;54;19937;31
2021/12/14 04:18:29;;;;;;;;;;;3.20;99.90;;;;;;2630231;47;19985;31
2021/12/14 04:21:01;;;;;;;;;;;3.20;99.90;;;;;;2624430;54;20027;31
2021/12/14 04:23:36;;;;;;;;;;;3.20;99.90;;;;;;2622217;54;19931;31
2021/12/14 04:26:11;;;;;;;;;;;3.10;99.90;;;;;;2617255;54;19985;31
2021/12/14 04:28:47;;;;;;;;;;;3.10;99.90;;;;;;2610797;54;19985;31
2021/12/14 04:31:22;;;;;;;;;;;3.10;99.90;;;;;;2622057;54;19997;31
2021/12/14 04:33:59;;;;;;;;;;;3.10;99.90;;;;;;2623177;54;19935;31
2021/12/14 04:36:31;;;;;;;;;;;3.10;99.90;;;;;;2629248;46;19941;31
2021/12/14 04:39:28;;;;;;;;;;;3.10;99.90;;;;;;2621313;54;19939;31
2021/12/14 04:53:20;;;;;;;;;;;3.10;99.90;;;;;;2619361;54;20791;31
2021/12/14 04:55:54;;;;;;;;;;;3.10;99.90;;;;;;2626168;54;19954;31
2021/12/14 04:58:31;;;;;;;;;;;3.20;99.90;;;;;;2623325;54;19931;-78
2021/12/14 05:01:07;;;;;;;;;;;3.20;99.90;;;;;;2631940;54;19944;-80
2021/12/14 05:03:51;;;;;;;;;;;3.20;99.90;;;;;;2632068;54;19930;-79
2021/12/14 05:06:32;;;;;;;;;;;3.20;99.90;;;;;;2632110;54;19990;-79
2021/12/14 05:11:52;;;;;;;;;;;3.30;99.90;;;;;;2632145;54;19923;-79
2021/12/14 05:14:27;;;;;;;;;;;3.30;99.90;;;;;;2629213;54;19939;31
2021/12/14 05:16:58;;;;;;;;;;;3.30;99.90;;;;;;2631795;54;19919;-78
2021/12/14 05:19:37;;;;;;;;;;;3.30;99.90;;;;;;2627375;54;19946;31
2021/12/14 05:22:12;;;;;;;;;;;3.40;99.90;;;;;;2631222;54;19923;-77
2021/12/14 05:24:53;;;;;;;;;;;3.30;99.90;;;;;;2642799;46;20712;31
2021/12/14 05:27:33;;;;;;;;;;;3.40;99.90;;;;;;2631866;54;19927;-80
2021/12/14 05:30:09;;;;;;;;;;;3.40;99.90;;;;;;2620384;54;19934;31
2021/12/14 05:32:56;;;;;;;;;;;3.40;99.90;;;;;;2622141;54;19981;31
2021/12/14 05:35:28;;;;;;;;;;;3.40;99.90;;;;;;2630284;54;19947;-79
2021/12/14 05:38:04;;;;;;;;;;;3.50;99.90;;;;;;2636338;46;19922;-80
2021/12/14 05:43:12;;;;;;;;;;;3.50;99.90;;;;;;2631881;54;19922;-81
2021/12/14 05:48:38;;;;;;;;;;;3.50;99.90;;;;;;2630133;46;19931;31
2021/12/14 05:51:12;;;;;;;;;;;3.50;99.90;;;;;;2630844;54;19953;31
2021/12/14 05:53:55;;;;;;;;;;;3.50;99.90;;;;;;2631895;54;19931;-79
2021/12/14 05:56:29;;;;;;;;;;;3.50;99.90;;;;;;2630825;54;19927;-76
2021/12/14 05:59:00;;;;;;;;;;;3.50;99.90;;;;;;2630883;54;19933;-80
2021/12/14 06:01:34;;;;;;;;;;;3.50;99.90;;;;;;2631907;54;19946;-80
2021/12/14 06:04:10;;;;;;;;;;;3.50;99.90;;;;;;2619796;54;19938;31
2021/12/14 06:06:44;;;;;;;;;;;3.50;99.90;;;;;;2620066;39;20877;-76
2021/12/14 06:09:23;;;;;;;;;;;3.50;99.90;;;;;;2621961;54;20660;-77
2021/12/14 06:12:06;;;;;;;;;;;3.50;99.90;;;;;;2617428;46;19933;31
2021/12/14 06:14:43;;;;;;;;;;;3.50;99.90;;;;;;2618153;46;19930;31
2021/12/14 06:17:15;;;;;;;;;;;3.40;99.90;;;;;;2631416;54;19971;-80
2021/12/14 06:22:23;;;;;;;;;;;3.40;99.90;;;;;;2624460;54;19962;-75
2021/12/14 06:24:58;;;;;;;;;;;3.40;99.90;;;;;;2631163;54;19923;-76
2021/12/14 06:27:33;;;;;;;;;;;3.40;99.90;;;;;;2633761;46;19945;-77
2021/12/14 06:30:06;;;;;;;;;;;3.40;99.90;;;;;;2630652;54;19919;-74
2021/12/14 06:32:40;;;;;;;;;;;3.50;99.90;;;;;;2631519;54;19934;-78
2021/12/14 06:35:12;;;;;;;;;;;3.40;99.90;;;;;;2631732;54;20524;-78
2021/12/14 06:38:08;;;;;;;;;;;3.40;99.90;;;;;;2631582;54;19942;-77
2021/12/14 06:40:51;;;;;;;;;;;3.40;99.90;;;;;;2637477;46;19922;-79
2021/12/14 06:43:22;;;;;;;;;;;3.40;99.90;;;;;;2631630;54;19941;-78
2021/12/14 06:45:58;;;;;;;;;;;3.30;99.90;;;;;;2636513;46;19943;-79
2021/12/14 06:48:30;;;;;;;;;;;3.40;99.90;;;;;;2631747;54;19940;-79
2021/12/14 06:51:06;;;;;;;;;;;3.40;99.90;;;;;;2631162;54;19938;-76
2021/12/14 06:53:49;;;;;;;;;;;3.40;99.90;;;;;;2631430;54;19929;-78
2021/12/14 06:56:57;;;;;;;;;;;3.40;99.90;;;;;;2622705;54;19954;-78
2021/12/14 06:59:36;;;;;;;;;;;3.40;99.90;;;;;;2619416;54;19923;31
2021/12/14 07:02:24;;;;;;;;;;;3.40;99.90;;;;;;2617636;54;19934;31
2021/12/14 07:05:11;;;;;;;;;;;3.40;99.90;;;;;;2623018;54;19927;31
2021/12/14 07:07:53;;;;;;;;;;;3.40;99.90;;;;;;2618783;54;20821;-82
2021/12/14 07:10:25;;;;;;;;;;;3.40;99.90;;;;;;2654205;39;20342;-77
2021/12/14 07:15:36;;;;;;;;;;;3.40;99.90;;;;;;2620615;54;19926;31
2021/12/14 07:18:08;;;;;;;;;;;3.40;99.90;;;;;;2618966;54;20433;31
2021/12/14 07:20:42;;;;;;;;;;;3.40;99.90;;;;;;2626497;54;20010;31
2021/12/14 07:23:25;;;;;;;;;;;3.40;99.90;;;;;;2631808;54;19964;-77
2021/12/14 07:25:56;;;;;;;;;;;3.40;99.90;;;;;;2634498;46;20635;-72
2021/12/14 07:28:30;;;;;;;;;;;3.50;99.90;;;;;;2626877;54;20401;31
2021/12/14 07:31:05;;;;;;;;;;;3.50;99.90;;;;;;2626229;54;19957;31
2021/12/14 07:33:40;;;;;;;;;;;3.50;99.90;;;;;;2630796;54;19926;-76
2021/12/14 07:36:10;;;;;;;;;;;3.50;99.90;;;;;;2622282;54;19941;31
2021/12/14 07:38:44;;;;;;;;;;;3.50;99.90;;;;;;2620950;54;19967;-76
2021/12/14 07:41:22;;;;;;;;;;;3.50;99.90;;;;;;2633085;46;19938;-76
2021/12/14 07:43:54;;;;;;;;;;;3.50;99.90;;;;;;2631479;54;19919;-81
2021/12/14 07:46:32;;;;;;;;;;;3.50;99.90;;;;;;2631468;54;19987;-80
2021/12/14 07:49:06;;;;;;;;;;;3.50;99.90;;;;;;2631731;54;19954;-80
2021/12/14 07:51:38;;;;;;;;;;;3.50;99.90;;;;;;2631677;46;19935;-79
2021/12/14 07:54:15;;;;;;;;;;;3.60;99.90;;;;;;2623938;54;19930;-73
2021/12/14 07:56:48;;;;;;;;;;;3.60;99.90;;;;;;2625765;54;19994;-73
2021/12/14 07:59:20;;;;;;;;;;;3.60;99.90;;;;;;2631338;54;19942;-78
2021/12/14 08:02:14;;;;;;;;;;;3.60;99.90;;;;;;2630835;54;19923;-79
2021/12/14 08:04:49;;;;;;;;;;;3.60;99.90;;;;;;2631078;54;19948;-81
2021/12/14 08:07:30;;;;;;;;;;;3.60;99.90;;;;;;2658525;39;20326;-80
2021/12/14 08:10:16;;;;;;;;;;;3.60;99.90;;;;;;2626587;54;19957;31
2021/12/14 08:12:51;;;;;;;;;;;3.70;99.90;;;;;;2627772;54;19991;-75
2021/12/14 08:15:24;;;;;;;;;;;3.60;99.90;;;;;;2620133;54;20462;-75
2021/12/14 08:18:06;;;;;;;;;;;3.60;99.90;;;;;;2617728;54;19950;31
2021/12/14 08:20:43;;;;;;;;;;;3.60;99.90;;;;;;2617820;54;19939;-73
2021/12/14 08:23:19;;;;;;;;;;;3.70;99.90;;;;;;2632034;39;20327;-78
2021/12/14 08:25:50;;;;;;;;;;;3.70;99.90;;;;;;2630869;54;19923;-79
2021/12/14 08:28:24;;;;;;;;;;;3.70;99.90;;;;;;2630716;54;19937;-80
2021/12/14 08:31:16;;;;;;;;;;;3.70;99.90;;;;;;2631050;54;19974;-78
2021/12/14 08:33:54;;;;;;;;;;;3.70;99.90;;;;;;2632011;47;19945;-78
2021/12/14 08:36:27;;;;;;;;;;;3.70;99.90;;;;;;2630786;54;19939;-78
2021/12/14 08:39:18;;;;;;;;;;;3.70;99.90;;;;;;2630491;54;19958;-79
2021/12/14 08:41:58;;;;;;;;;;;3.70;99.90;;;;;;2631054;54;19941;-79
2021/12/14 08:44:35;;;;;;;;;;;3.70;99.90;;;;;;2631205;54;19946;-80
2021/12/14 08:49:49;;;;;;;;;;;3.80;99.90;;;;;;2643037;39;20332;-78
2021/12/14 08:52:21;;;;;;;;;;;3.80;99.90;;;;;;2631123;54;19927;-79
2021/12/14 08:54:56;;;;;;;;;;;3.80;99.90;;;;;;2630623;54;19943;-80
2021/12/14 08:57:28;;;;;;;;;;;3.80;99.90;;;;;;2630854;54;19945;-79
2021/12/14 09:00:01;;;;;;;;;;;3.80;99.90;;;;;;2633408;47;20019;-79
2021/12/14 09:02:36;;;;;;;;;;;3.80;99.90;;;;;;2630760;54;19943;-80
2021/12/14 09:05:10;;;;;;;;;;;3.80;99.90;;;;;;2631097;47;20053;-79
2021/12/14 09:07:48;;;;;;;;;;;3.80;99.90;;;;;;2630400;54;19946;-79
2021/12/14 09:10:26;;;;;;;;;;;3.80;99.90;;;;;;2630779;54;19938;-80
2021/12/14 09:13:00;;;;;;;;;;;3.90;99.90;;;;;;2630572;54;19982;-78
2021/12/14 09:15:36;;;;;;;;;;;3.80;99.90;;;;;;2631416;54;19991;-79
2021/12/14 09:18:07;;;;;;;;;;;3.90;99.90;;;;;;2631545;54;19930;-79
2021/12/14 09:20:40;;;;;;;;;;;3.90;99.90;;;;;;2632349;46;19962;-79
2021/12/14 09:23:13;;;;;;;;;;;3.80;99.90;;;;;;2631129;54;19994;-78
2021/12/14 09:26:03;;;;;;;;;;;3.90;99.90;;;;;;2632032;46;20003;-78
2021/12/14 09:28:35;;;;;;;;;;;3.90;99.90;;;;;;2631465;54;19935;-78
2021/12/14 09:31:08;;;;;;;;;;;3.90;99.90;;;;;;2631516;54;19946;-79
2021/12/14 09:33:41;;;;;;;;;;;3.90;99.90;;;;;;2631483;54;19934;-77
2021/12/14 09:36:13;;;;;;;;;;;3.90;99.90;;;;;;2632290;46;19983;-79
2021/12/14 09:39:03;;;;;;;;;;;3.90;99.90;;;;;;2631706;54;19931;-79
2021/12/14 09:41:42;;;;;;;;;;;3.90;99.90;;;;;;2622096;54;19962;31
2021/12/14 09:44:16;;;;;;;;;;;3.90;99.90;;;;;;2633772;46;19942;-80
2021/12/14 09:46:47;;;;;;;;;;;3.90;99.90;;;;;;2632684;46;19974;-77
2021/12/14 09:49:18;;;;;;;;;;;3.90;99.90;;;;;;2646691;46;19965;-80
2021/12/14 09:51:50;;;;;;;;;;;3.90;99.90;;;;;;2631780;54;19974;-79
2021/12/14 09:56:59;;;;;;;;;;;3.90;99.90;;;;;;2631275;54;20546;-79
2021/12/14 09:59:31;;;;;;;;;;;3.90;99.90;;;;;;2632896;46;19939;-79
2021/12/14 10:02:09;;;;;;;;;;;3.90;99.90;;;;;;2631435;54;19939;-77
2021/12/14 10:04:42;;;;;;;;;;;4.00;99.90;;;;;;2631028;54;19945;-78
2021/12/14 10:07:16;;;;;;;;;;;4.00;99.90;;;;;;2631196;54;19939;-78
2021/12/14 10:09:52;;;;;;;;;;;4.00;99.90;;;;;;2631046;46;19962;-80
2021/12/14 10:15:12;;;;;;;;;;;4.00;99.90;;;;;;2631149;46;19938;-78
2021/12/14 10:17:43;;;;;;;;;;;4.10;99.90;;;;;;2630937;54;20406;-80
2021/12/14 10:20:15;;;;;;;;;;;4.00;99.90;;;;;;2630666;54;19983;-78
2021/12/14 10:22:51;;;;;;;;;;;4.10;99.90;;;;;;2630489;47;19995;-78
2021/12/14 10:25:23;;;;;;;;;;;4.10;99.90;;;;;;2631684;54;19933;-79
2021/12/14 10:28:02;;;;;;;;;;;4.10;99.90;;;;;;2631104;46;20054;-78
2021/12/14 10:30:41;;;;;;;;;;;4.10;99.90;;;;;;2631197;54;20409;-79
2021/12/14 10:33:12;;;;;;;;;;;4.10;99.90;;;;;;2631715;54;20428;-80
2021/12/14 10:35:48;;;;;;;;;;;4.20;99.90;;;;;;2631043;54;19938;-79
2021/12/14 10:38:26;;;;;;;;;;;4.20;99.90;;;;;;2631278;54;19964;-80
2021/12/14 10:43:54;;;;;;;;;;;4.20;99.90;;;;;;2636022;46;19974;31
2021/12/14 10:46:26;;;;;;;;;;;4.20;99.90;;;;;;2631500;54;19942;-77
2021/12/14 10:49:01;;;;;;;;;;;4.20;99.90;;;;;;2632174;46;19939;-75
2021/12/14 10:51:34;;;;;;;;;;;4.30;99.90;;;;;;2632022;46;19918;-77
2021/12/14 10:54:12;;;;;;;;;;;4.30;99.90;;;;;;2632113;46;19934;-77
2021/12/14 10:56:45;;;;;;;;;;;4.30;99.90;;;;;;2631256;54;19938;-78
2021/12/14 10:59:26;;;;;;;;;;;4.30;99.90;;;;;;2635089;46;19986;-79
2021/12/14 11:01:57;;;;;;;;;;;4.30;99.90;;;;;;2631383;54;20420;-79
2021/12/14 11:20:45;;;;;;;155.30;65.65;;;4.30;99.90;;;;;;2625844;53;21002;31
2021/12/14 11:23:19;;;;;;;282.67;78.87;;;4.60;99.90;;;;;;2587345;54;20052;31
2021/12/14 11:25:58;;;;;;;145.60;60.43;;;4.60;99.90;;;;;;2589995;54;20940;31
2021/12/14 11:28:33;;;;;;;182.05;67.30;;;4.50;99.90;;;;;;2590095;54;20899;31
2021/12/14 11:31:08;;;;;;;235.27;68.57;;;4.50;99.90;;;;;;2687101;38;21515;31
2021/12/14 11:33:45;;;;;;;168.07;60.85;;;4.50;99.90;;;;;;2590295;54;20026;31
2021/12/14 11:36:32;;;;;;;271.90;72.90;;;4.50;99.90;;;;;;2590252;54;20954;31
2021/12/14 11:39:12;;;;;;;303.60;77.70;;;4.40;99.90;;;;;;2608594;46;20107;31
2021/12/14 11:41:50;;;;;;;175.45;61.75;;;4.40;99.90;;;;;;2608459;46;20038;31
2021/12/14 11:44:27;;;;;;;146.80;53.43;;;4.30;99.90;;;;;;2590195;54;20961;31
2021/12/14 11:47:22;;;;;;;160.55;63.35;;;4.30;99.90;;;;;;2590018;54;20944;31
2021/12/14 11:49:57;;;;;;;234.68;77.22;;;4.30;99.90;;;;;;2608200;46;20779;31
2021/12/14 11:52:42;;;;;;;254.90;73.40;;;4.30;99.90;;;;;;2590076;54;20032;31
2021/12/14 11:55:23;;;;;;;167.98;70.38;;;4.30;99.90;;;;;;2589922;54;20084;31
2021/12/14 11:58:17;;;;;;;261.98;78.30;;;4.30;99.90;;;;;;2608716;46;20907;31
2021/12/14 12:00:50;;;;;;;546.10;107.83;;;4.30;99.90;;;;;;2608642;46;20965;31
2021/12/14 12:03:42;;;;;;;188.25;67.40;;;4.20;99.90;;;;;;2608444;46;20881;31
2021/12/14 12:06:33;;;;;;;221.85;82.80;;;4.20;99.90;;;;;;2608544;46;20057;31
2021/12/14 12:12:04;;;;;;;198.48;77.00;;;4.30;99.90;;;;;;2589751;54;20056;31
2021/12/14 12:14:38;;;;;;;282.38;90.88;;;4.30;99.90;;;;;;2589871;54;20661;31
2021/12/14 12:17:17;;;;;;;213.53;74.63;;;4.20;99.90;;;;;;2608382;46;20034;31
2021/12/14 12:19:57;;;;;;;246.63;82.25;;;4.30;99.90;;;;;;2607408;46;20245;31
2021/12/14 12:22:37;;;;;;;193.75;77.18;;;4.20;99.90;;;;;;2586174;54;20081;31
2021/12/14 12:25:13;;;;;;;164.20;65.77;;;4.30;99.90;;;;;;2604651;46;20038;31
2021/12/14 12:27:46;;;;;;;;;;;4.30;99.90;;;;;;2586829;54;20026;31
2021/12/14 12:30:38;;;;;;;382.65;148.73;;;4.30;99.90;;;;;;2586161;54;20752;31
2021/12/14 12:33:21;;;;;;;223.05;97.43;;;4.30;99.90;;;;;;2586355;54;20033;31
2021/12/14 12:35:56;;;;;;;260.10;98.68;;;4.30;99.90;;;;;;2586292;54;20791;31
2021/12/14 12:38:46;;;;;;;195.05;81.40;;;4.30;99.90;;;;;;2586361;54;20755;31
2021/12/14 12:41:44;;;;;;;183.03;77.80;;;4.30;99.90;;;;;;2603933;46;20877;31
2021/12/14 12:44:27;;;;;;;214.90;80.75;;;4.40;99.90;;;;;;2586369;54;20143;31
2021/12/14 12:47:02;;;;;;;159.00;67.60;;;4.40;99.90;;;;;;2702427;39;21546;31
2021/12/14 12:49:34;;;;;;;189.27;78.27;;;4.40;99.90;;;;;;2586232;54;20528;31
2021/12/14 12:52:20;;;;;;;191.85;84.05;;;4.40;99.90;;;;;;2586293;54;20787;31
2021/12/14 12:55:01;;;;;;;143.67;65.07;;;4.40;99.90;;;;;;2586322;54;20026;31
2021/12/14 12:57:42;;;;;;;147.15;66.78;;;4.50;99.90;;;;;;2586471;54;20554;31
2021/12/14 13:00:34;;;;;;;173.90;74.38;;;4.50;99.90;;;;;;2586280;54;20030;31
2021/12/14 13:03:27;;;;;;;182.98;81.65;;;4.40;99.90;;;;;;2586286;54;20038;31
2021/12/14 13:06:00;;;;;;;198.15;81.95;;;4.50;99.90;;;;;;2586255;54;20026;31
2021/12/14 13:08:36;;;;;;;208.73;89.13;;;4.50;99.90;;;;;;2586270;54;20038;31
2021/12/14 13:11:11;;;;;;;189.13;96.70;;;4.50;99.90;;;;;;2585796;54;19934;31
2021/12/14 13:13:47;;;;;;;174.98;84.75;;;4.60;99.90;;;;;;2585970;54;20042;31
2021/12/14 13:16:22;;;;;;;175.45;82.60;;;4.60;99.90;;;;;;2585495;54;20743;31
2021/12/14 13:19:02;;;;;;;172.60;86.00;;;4.60;99.90;;;;;;2585128;54;20889;31
2021/12/14 13:21:45;;;;;;;124.75;64.80;;;4.60;99.90;;;;;;2683648;39;20312;31
2021/12/14 13:24:26;;;;;;;180.02;81.57;;;4.60;99.90;;;;;;2604682;46;20044;31
2021/12/14 13:27:05;;;;;;;182.38;83.38;;;4.70;99.90;;;;;;2586085;54;20026;31
2021/12/14 13:29:58;;;;;;;195.40;85.18;;;4.70;99.90;;;;;;2604399;46;20895;31
2021/12/14 13:32:31;;;;;;;147.45;70.75;;;4.70;99.90;;;;;;2585894;54;20840;31
2021/12/14 13:35:06;;;;;;;180.02;83.28;;;4.70;99.90;;;;;;2683775;39;20396;31
2021/12/14 13:37:48;;;;;;;155.38;79.75;;;4.80;99.90;;;;;;2684172;39;21424;31
2021/12/14 13:40:24;;;;;;;195.52;94.93;;;4.70;99.90;;;;;;2586078;54;20049;31
2021/12/14 13:43:00;;;;;;;;;;;4.80;99.90;;;;;;2684310;39;20313;31
2021/12/14 13:45:34;;;;;;;179.77;88.80;;;4.80;99.90;;;;;;2604606;46;20778;31
2021/12/14 13:48:08;;;;;;;166.95;83.75;;;4.80;99.90;;;;;;2604114;46;21095;31
2021/12/14 13:50:48;;;;;;;182.50;92.03;;;4.80;99.90;;;;;;2604761;46;20735;31
2021/12/14 13:53:23;;;;;;;152.95;81.43;;;4.80;99.90;;;;;;2586220;54;20979;31
2021/12/14 13:56:12;;;;;;;173.05;89.80;;;4.90;99.90;;;;;;2586100;54;20034;31
2021/12/14 13:58:46;;;;;;;173.35;90.85;;;4.90;99.90;;;;;;2604269;46;20081;31
2021/12/14 14:01:26;;;;;;;161.20;78.70;;;4.90;99.90;;;;;;2585808;54;20027;31
2021/12/14 14:04:01;;;;;;;162.70;82.18;;;4.90;99.90;;;;;;2586281;54;20877;31
2021/12/14 14:06:36;;;;;;;171.30;86.93;;;4.90;99.90;;;;;;2585892;54;20903;31
2021/12/14 14:09:17;;;;;;;149.65;77.70;;;5.00;99.90;;;;;;2604488;46;20030;31
2021/12/14 14:11:55;;;;;;;156.70;77.45;;;5.00;99.90;;;;;;2585744;54;20883;31
2021/12/14 14:14:27;;;;;;;118.50;61.13;;;4.90;99.90;;;;;;2586175;54;20026;31
2021/12/14 14:17:05;;;;;;;115.80;60.40;;;5.00;99.90;;;;;;2586134;54;20038;31
2021/12/14 14:19:41;;;;;;;112.28;60.13;;;5.00;99.90;;;;;;2586178;54;21251;31
2021/12/14 14:22:17;;;;;;;110.27;59.80;;;5.00;99.90;;;;;;2599313;46;20034;31
2021/12/14 14:24:58;;;;;;;130.52;66.05;;;5.00;99.90;;;;;;2585951;54;20022;31
2021/12/14 14:27:39;;;;;;;118.75;60.40;;;5.10;99.90;;;;;;2585954;54;20026;31
2021/12/14 14:30:36;;;;;;;96.65;52.88;;;5.10;99.90;;;;;;2604337;46;20888;31
2021/12/14 14:33:19;;;;;;;91.70;50.65;;;5.10;99.90;;;;;;2585800;54;20983;31
2021/12/14 14:35:54;;;;;;;108.55;61.30;;;5.10;99.90;;;;;;2603949;46;21002;31
2021/12/14 14:38:41;;;;;;;91.75;55.88;;;5.20;99.90;;;;;;2604507;46;20037;31
2021/12/14 14:41:35;;;;;;;93.50;53.28;;;5.10;99.90;;;;;;2585837;54;20875;31
2021/12/14 14:44:09;;;;;;;73.68;43.40;;;5.10;99.90;;;;;;2585659;54;20100;31
2021/12/14 14:47:05;;;;;;;95.68;52.10;;;5.20;99.90;;;;;;2586004;54;20735;31
2021/12/14 14:50:03;;;;;;;79.70;47.20;;;5.20;99.90;;;;;;2586066;54;20112;31
2021/12/14 14:52:41;;;;;;;88.85;51.35;;;5.20;99.90;;;;;;2586166;54;20056;31
2021/12/14 14:55:19;;;;;;;105.80;62.63;;;5.20;99.90;;;;;;2586009;54;20088;31
2021/12/14 14:58:07;;;;;;;111.25;64.90;;;5.20;99.90;;;;;;2585811;54;20867;31
2021/12/14 15:00:54;;;;;;;81.80;50.40;;;5.20;99.90;;;;;;2585480;54;20864;31
2021/12/14 15:03:29;;;;;;;97.85;57.92;;;5.20;99.90;;;;;;2585742;54;20052;31
2021/12/14 15:06:08;;;;;;;96.67;58.90;;;5.20;99.90;;;;;;2586043;54;20038;31
2021/12/14 15:08:45;;;;;;;84.60;52.13;;;5.10;99.90;;;;;;2585840;54;20030;31
2021/12/14 15:11:41;;;;;;;96.13;58.80;;;5.20;99.90;;;;;;2585907;54;20241;31
2021/12/14 15:14:15;;;;;;;89.05;52.50;;;5.20;99.90;;;;;;2585857;54;20778;31
2021/12/14 15:16:55;;;;;;;73.95;45.75;;;5.20;99.90;;;;;;2585825;54;20960;31
2021/12/14 15:19:30;;;;;;;96.40;57.43;;;5.20;99.90;;;;;;2585686;54;20849;31
2021/12/14 15:22:28;;;;;;;93.30;57.70;;;5.20;99.90;;;;;;2585777;54;20033;31
2021/12/14 15:25:30;;;;;;;83.75;48.75;;;5.20;99.90;;;;;;2604028;47;20108;31
2021/12/14 15:28:02;;;;;;;78.00;49.20;;;5.20;99.90;;;;;;2585511;54;20089;31
2021/12/14 15:30:49;;;;;;;85.57;50.13;;;5.20;99.90;;;;;;2585842;54;20027;31
2021/12/14 15:33:27;;;;;;;84.55;48.65;;;5.20;99.90;;;;;;2604483;47;20034;31
2021/12/14 15:36:07;;;;;;;103.05;64.35;;;5.20;99.90;;;;;;2604474;47;20791;31
2021/12/14 15:38:46;;;;;;;82.78;50.38;;;5.20;99.90;;;;;;2585679;54;20145;31
2021/12/14 15:41:53;;;;;;;108.78;65.03;;;5.20;99.90;;;;;;2754825;31;21351;31
2021/12/14 15:44:25;;;;;;;83.00;50.80;;;5.20;99.90;;;;;;2597551;47;20770;31
2021/12/14 15:47:10;;;;;;;105.30;63.80;;;5.20;99.90;;;;;;2585527;54;20279;31
2021/12/14 15:49:42;;;;;;;109.68;66.88;;;5.20;99.90;;;;;;2585778;54;20039;31
2021/12/14 15:52:17;;;;;;;94.80;58.00;;;5.20;99.90;;;;;;2604174;47;20026;31
2021/12/14 15:54:54;;;;;;;105.95;63.90;;;5.20;99.90;;;;;;2585773;54;20034;31
2021/12/14 15:57:26;;;;;;;119.47;71.73;;;5.10;99.90;;;;;;2605165;46;20877;31
2021/12/14 16:00:02;;;;;;;130.95;76.43;;;5.20;99.90;;;;;;2586342;54;20038;31
2021/12/14 16:02:42;;;;;;;111.45;61.80;;;5.10;99.90;;;;;;2586561;54;20027;31
2021/12/14 16:05:19;;;;;;;114.00;70.57;;;5.10;99.90;;;;;;2604935;46;20242;31